createdAt,value
2022-08-16T00:00:46.690Z,98346.84
2022-08-16T00:03:37.762Z,98352.38
2022-08-16T00:06:24.070Z,98357.72
2022-08-16T00:09:11.306Z,98352.78
2022-08-16T00:12:00.418Z,98334.78
2022-08-16T00:14:46.987Z,98353.72
2022-08-16T00:17:56.371Z,98323.94
2022-08-16T00:20:42.254Z,98346.91
2022-08-16T00:23:34.878Z,98336.19
2022-08-16T00:26:35.031Z,98320.44
2022-08-16T00:29:25.448Z,98316.13
2022-08-16T00:32:18.026Z,98360.41
2022-08-16T00:35:05.756Z,98362.66
2022-08-16T00:38:03.593Z,98370.19
2022-08-16T00:41:11.362Z,98369.53
2022-08-16T00:44:02.285Z,98372.31
2022-08-16T00:47:05.925Z,98366.41
2022-08-16T00:49:56.607Z,98363.97
2022-08-16T00:52:50.142Z,98348.03
2022-08-16T00:55:42.054Z,98347.47
2022-08-16T00:58:32.282Z,98359.84
2022-08-16T01:01:21.852Z,98357.66
2022-08-16T01:04:29.429Z,98343.34
2022-08-16T01:07:17.710Z,98322.97
2022-08-16T01:10:05.752Z,98356.81
2022-08-16T01:13:07.789Z,98371.41
2022-08-16T01:16:02.987Z,98354.66
2022-08-16T01:19:05.426Z,98368.63
2022-08-16T01:22:47.861Z,98351.66
2022-08-16T01:25:14.421Z,98372.22
2022-08-16T01:28:07.077Z,98381.75
2022-08-16T01:30:56.777Z,98382.75
2022-08-16T01:33:44.875Z,98320.25
2022-08-16T01:36:37.447Z,98372.38
2022-08-16T01:39:23.820Z,98377.13
2022-08-16T01:42:12.169Z,98353.47
2022-08-16T01:44:59.675Z,98338.00
2022-08-16T01:47:51.215Z,98381.81
2022-08-16T01:51:09.052Z,98382.84
2022-08-16T01:53:54.643Z,98342.03
2022-08-16T01:56:50.149Z,98330.28
2022-08-16T01:59:39.553Z,98366.28
2022-08-16T02:02:28.328Z,98391.31
2022-08-16T02:05:15.697Z,98369.28
2022-08-16T02:08:04.583Z,98353.97
2022-08-16T02:10:50.839Z,98377.28
2022-08-16T02:13:41.891Z,98313.19
2022-08-16T02:16:29.806Z,98373.13
2022-08-16T02:19:20.581Z,98388.66
2022-08-16T02:22:33.767Z,98358.72
2022-08-16T02:25:17.511Z,98380.09
2022-08-16T02:28:04.331Z,98367.31
2022-08-16T02:30:52.774Z,98375.88
2022-08-16T02:33:43.619Z,98371.84
2022-08-16T02:36:49.615Z,98369.22
2022-08-16T02:39:39.016Z,98358.88
2022-08-16T02:42:28.395Z,98369.03
2022-08-16T02:45:15.488Z,98358.81
2022-08-16T02:48:29.049Z,98329.00
2022-08-16T02:51:11.794Z,98377.41
2022-08-16T02:54:02.681Z,98322.50
2022-08-16T02:56:49.360Z,98362.72
2022-08-16T02:59:39.700Z,98365.53
2022-08-16T03:02:41.594Z,98349.38
2022-08-16T03:05:31.626Z,98358.03
2022-08-16T03:08:51.172Z,98354.63
2022-08-16T03:11:28.610Z,98346.22
2022-08-16T03:14:24.992Z,98351.34
2022-08-16T03:17:16.418Z,98349.59
2022-08-16T03:20:06.738Z,98350.50
2022-08-16T03:22:59.579Z,98345.38
2022-08-16T03:25:48.533Z,98295.97
2022-08-16T03:28:35.777Z,98336.03
2022-08-16T03:31:22.751Z,98320.47
2022-08-16T03:34:09.933Z,98305.19
2022-08-16T03:37:00.960Z,98319.81
2022-08-16T03:39:48.042Z,98302.81
2022-08-16T03:43:18.777Z,98316.56
2022-08-16T03:45:52.662Z,98342.25
2022-08-16T03:48:40.561Z,98331.22
2022-08-16T03:51:34.491Z,98334.19
2022-08-16T03:54:24.253Z,98306.16
2022-08-16T03:57:15.678Z,98342.88
2022-08-16T04:00:35.908Z,98342.25
2022-08-16T04:03:22.458Z,98318.34
2022-08-16T04:06:09.190Z,98331.81
2022-08-16T04:08:56.441Z,98295.06
2022-08-16T04:11:43.502Z,98342.94
2022-08-16T04:14:32.727Z,98345.47
2022-08-16T04:17:21.293Z,98308.03
2022-08-16T04:20:23.841Z,98315.59
2022-08-16T04:23:23.383Z,98347.00
2022-08-16T04:26:16.697Z,98322.75
2022-08-16T04:29:15.297Z,98349.81
2022-08-16T04:32:05.033Z,98336.06
2022-08-16T04:34:54.886Z,98325.84
2022-08-16T04:37:44.414Z,98358.34
2022-08-16T04:40:37.707Z,98352.88
2022-08-16T04:43:25.174Z,98345.31
2022-08-16T04:46:30.707Z,98362.66
2022-08-16T04:49:22.932Z,98342.03
2022-08-16T04:52:33.444Z,98377.53
2022-08-16T04:55:19.736Z,98377.88
2022-08-16T04:58:43.751Z,98386.94
2022-08-16T05:01:18.265Z,98384.16
2022-08-16T05:04:05.254Z,98359.69
2022-08-16T05:07:09.961Z,98320.38
2022-08-16T05:10:19.962Z,98341.59
2022-08-16T05:13:15.392Z,98390.00
2022-08-16T05:16:02.981Z,98366.66
2022-08-16T05:18:56.886Z,98394.56
2022-08-16T05:21:45.710Z,98357.59
2022-08-16T05:24:32.702Z,98372.59
2022-08-16T05:27:20.221Z,98348.50
2022-08-16T05:30:34.971Z,98403.78
2022-08-16T05:33:18.019Z,98402.81
2022-08-16T05:36:14.245Z,98397.31
2022-08-16T05:39:08.873Z,98364.69
2022-08-16T05:41:56.661Z,98375.16
2022-08-16T05:44:43.753Z,98386.22
2022-08-16T05:47:32.149Z,98385.31
2022-08-16T05:50:19.248Z,98382.50
2022-08-16T05:53:07.538Z,98401.91
2022-08-16T05:56:02.296Z,98366.47
2022-08-16T05:58:51.625Z,98407.78
2022-08-16T06:01:41.034Z,98412.16
2022-08-16T06:04:35.600Z,98391.00
2022-08-16T06:07:26.323Z,98397.88
2022-08-16T06:10:32.471Z,98389.16
2022-08-16T06:13:21.912Z,98406.59
2022-08-16T06:16:09.513Z,98417.22
2022-08-16T06:19:05.464Z,98361.00
2022-08-16T06:21:55.058Z,98416.78
2022-08-16T06:24:54.671Z,98397.75
2022-08-16T06:27:57.673Z,98389.00
2022-08-16T06:30:47.857Z,98399.78
2022-08-16T06:33:41.869Z,98425.53
2022-08-16T06:36:29.400Z,98405.41
2022-08-16T06:39:34.393Z,98418.50
2022-08-16T06:42:25.850Z,98376.13
2022-08-16T06:45:30.840Z,98379.88
2022-08-16T06:48:32.546Z,98383.03
2022-08-16T06:51:20.155Z,98405.28
2022-08-16T06:54:14.228Z,98409.16
2022-08-16T06:57:01.690Z,98412.25
2022-08-16T06:59:48.682Z,98411.56
2022-08-16T07:02:51.607Z,98368.69
2022-08-16T07:05:41.791Z,98422.94
2022-08-16T07:08:35.389Z,98397.47
2022-08-16T07:11:48.106Z,98414.41
2022-08-16T07:14:33.953Z,98429.59
2022-08-16T07:17:24.778Z,98403.44
2022-08-16T07:20:29.998Z,98429.03
2022-08-16T07:23:37.233Z,98391.22
2022-08-16T07:26:27.445Z,98397.09
2022-08-16T07:29:17.233Z,98412.50
2022-08-16T07:32:05.020Z,98423.41
2022-08-16T07:34:52.976Z,98426.22
2022-08-16T07:37:40.193Z,98394.84
2022-08-16T07:40:59.421Z,98377.03
2022-08-16T07:43:47.542Z,98401.53
2022-08-16T07:46:39.437Z,98403.44
2022-08-16T07:49:49.867Z,98388.34
2022-08-16T07:52:44.816Z,98401.91
2022-08-16T07:55:45.920Z,98396.63
2022-08-16T07:58:37.500Z,98399.72
2022-08-16T08:01:30.154Z,98415.38
2022-08-16T08:04:19.694Z,98412.50
2022-08-16T08:07:08.966Z,98426.13
2022-08-16T08:09:57.872Z,98435.75
2022-08-16T08:12:44.768Z,98403.31
2022-08-16T08:15:34.412Z,98443.47
2022-08-16T08:18:29.678Z,98406.75
2022-08-16T08:21:27.215Z,98409.84
2022-08-16T08:24:15.492Z,98405.81
2022-08-16T08:27:04.810Z,98430.28
2022-08-16T08:30:09.306Z,98384.41
2022-08-16T08:33:04.300Z,98399.38
2022-08-16T08:36:01.409Z,98431.25
2022-08-16T08:38:48.453Z,98431.22
2022-08-16T08:41:38.802Z,98415.47
2022-08-16T08:44:29.025Z,98439.56
2022-08-16T08:47:21.010Z,98430.16
2022-08-16T08:50:10.044Z,98431.59
2022-08-16T08:52:56.925Z,98433.69
2022-08-16T08:55:43.479Z,98468.34
2022-08-16T08:58:34.388Z,98459.34
2022-08-16T09:01:56.936Z,98431.56
2022-08-16T09:05:14.817Z,98446.34
2022-08-16T09:08:05.716Z,98431.38
2022-08-16T09:11:03.930Z,98442.19
2022-08-16T09:13:56.687Z,98442.50
2022-08-16T09:17:03.869Z,98470.03
2022-08-16T09:19:55.253Z,98437.66
2022-08-16T09:22:44.015Z,98434.38
2022-08-16T09:25:38.440Z,98432.38
2022-08-16T09:29:13.713Z,98425.59
2022-08-16T09:31:41.041Z,98442.16
2022-08-16T09:34:29.490Z,98434.72
2022-08-16T09:37:18.028Z,98435.28
2022-08-16T09:40:32.918Z,98443.31
2022-08-16T09:43:44.726Z,98450.97
2022-08-16T09:46:44.521Z,98429.69
2022-08-16T09:49:35.217Z,98442.75
2022-08-16T09:52:23.774Z,98452.66
2022-08-16T09:55:13.652Z,98440.03
2022-08-16T09:58:00.188Z,98459.78
2022-08-16T10:00:49.454Z,98456.47
2022-08-16T10:03:36.196Z,98427.06
2022-08-16T10:06:23.119Z,98446.13
2022-08-16T10:09:10.564Z,98424.44
2022-08-16T10:12:19.793Z,98423.34
2022-08-16T10:15:08.726Z,98439.97
2022-08-16T10:18:56.888Z,98443.81
2022-08-16T10:21:15.711Z,98422.00
2022-08-16T10:24:02.479Z,98436.84
2022-08-16T10:27:17.620Z,98437.31
2022-08-16T10:30:01.329Z,98443.50
2022-08-16T10:32:53.715Z,98452.53
2022-08-16T10:35:46.817Z,98460.91
2022-08-16T10:38:36.659Z,98441.50
2022-08-16T10:41:25.259Z,98462.84
2022-08-16T10:44:14.211Z,98457.63
2022-08-16T10:47:04.806Z,98427.00
2022-08-16T10:49:51.617Z,98452.56
2022-08-16T10:55:40.821Z,98459.31
2022-08-16T10:58:34.633Z,98442.66
2022-08-16T11:01:43.542Z,98445.78
2022-08-16T11:05:05.595Z,98457.41
2022-08-16T11:07:52.563Z,98467.06
2022-08-16T11:11:05.397Z,98463.31
2022-08-16T11:14:05.943Z,98427.94
2022-08-16T11:17:10.484Z,98421.19
2022-08-16T11:20:41.584Z,98449.91
2022-08-16T11:23:04.730Z,98437.59
2022-08-16T11:26:16.626Z,98453.53
2022-08-16T11:29:15.259Z,98426.00
2022-08-16T11:32:05.403Z,98467.66
2022-08-16T11:35:13.604Z,98430.00
2022-08-16T11:38:23.515Z,98453.91
2022-08-16T11:41:10.734Z,98425.28
2022-08-16T11:43:57.230Z,98433.00
2022-08-16T11:46:46.778Z,98429.59
2022-08-16T11:49:33.288Z,98432.16
2022-08-16T11:52:21.741Z,98433.69
2022-08-16T11:55:10.795Z,98448.09
2022-08-16T11:57:57.526Z,98373.84
2022-08-16T12:00:51.314Z,98396.56
2022-08-16T12:03:38.628Z,98412.63
2022-08-16T12:06:30.856Z,98403.22
2022-08-16T12:09:20.547Z,98427.69
2022-08-16T12:12:07.343Z,98411.16
2022-08-16T12:15:00.063Z,98420.81
2022-08-16T12:17:48.273Z,98414.91
2022-08-16T12:20:41.159Z,98442.41
2022-08-16T12:23:28.029Z,98404.84
2022-08-16T12:26:18.371Z,98396.91
2022-08-16T12:29:04.752Z,98395.22
2022-08-16T12:32:01.224Z,98413.66
2022-08-16T12:34:58.545Z,98405.69
2022-08-16T12:37:48.142Z,98413.50
2022-08-16T12:40:37.569Z,98401.88
2022-08-16T12:43:31.054Z,98388.25
2022-08-16T12:46:17.918Z,98417.22
2022-08-16T12:49:06.350Z,98389.22
2022-08-16T12:51:58.677Z,98412.19
2022-08-16T12:54:46.330Z,98382.97
2022-08-16T12:57:41.958Z,98392.44
2022-08-16T13:00:33.535Z,98411.06
2022-08-16T13:03:21.630Z,98362.91
2022-08-16T13:06:08.612Z,98371.56
2022-08-16T13:08:56.204Z,98378.31
2022-08-16T13:11:55.434Z,98371.47
2022-08-16T13:14:47.516Z,98384.38
2022-08-16T13:17:38.990Z,98403.28
2022-08-16T13:20:29.953Z,98389.34
2022-08-16T13:23:17.192Z,98362.38
2022-08-16T13:26:04.863Z,98377.03
2022-08-16T13:28:52.718Z,98385.28
2022-08-16T13:31:39.390Z,98365.19
2022-08-16T13:34:26.013Z,98368.31
2022-08-16T13:37:12.419Z,98347.94
2022-08-16T13:40:00.896Z,98358.06
2022-08-16T13:42:49.474Z,98372.00
2022-08-16T13:45:36.410Z,98363.81
2022-08-16T13:48:26.121Z,98333.78
2022-08-16T13:51:17.031Z,98380.97
2022-08-16T13:54:05.794Z,98372.69
2022-08-16T13:56:52.603Z,98331.66
2022-08-16T13:59:42.599Z,98346.63
2022-08-16T14:02:28.926Z,98339.94
2022-08-16T14:05:21.900Z,98357.50
2022-08-16T14:08:08.435Z,98347.25
2022-08-16T14:10:55.482Z,98329.03
2022-08-16T14:13:42.872Z,98353.56
2022-08-16T14:16:33.875Z,98353.69
2022-08-16T14:19:22.512Z,98311.59
2022-08-16T14:22:14.243Z,98299.81
2022-08-16T14:25:03.176Z,98311.34
2022-08-16T14:27:54.279Z,98323.09
2022-08-16T14:30:41.071Z,98326.75
2022-08-16T14:33:27.936Z,98335.47
2022-08-16T14:36:29.561Z,98297.59
2022-08-16T14:39:16.226Z,98309.66
2022-08-16T14:42:10.636Z,98348.66
2022-08-16T14:45:00.409Z,98324.41
2022-08-16T14:47:49.760Z,98341.91
2022-08-16T14:50:37.419Z,98331.38
2022-08-16T14:53:24.810Z,98311.59
2022-08-16T14:56:17.300Z,98313.50
2022-08-16T14:59:19.411Z,98341.84
2022-08-16T15:02:13.764Z,98339.28
2022-08-16T15:05:15.161Z,98325.44
2022-08-16T15:08:01.716Z,98331.22
2022-08-16T15:10:49.683Z,98327.97
2022-08-16T15:13:37.249Z,98306.41
2022-08-16T15:16:29.129Z,98278.72
2022-08-16T15:19:16.061Z,98329.25
2022-08-16T15:22:04.385Z,98324.38
2022-08-16T15:24:52.995Z,98318.91
2022-08-16T15:27:42.199Z,98301.50
2022-08-16T15:30:57.014Z,98322.53
2022-08-16T15:33:43.383Z,98304.25
2022-08-16T15:36:31.887Z,98331.59
2022-08-16T15:39:37.126Z,98307.84
2022-08-16T15:42:28.096Z,98332.28
2022-08-16T15:45:36.822Z,98325.44
2022-08-16T15:48:28.613Z,98323.38
2022-08-16T15:51:16.520Z,98320.72
2022-08-16T15:54:21.435Z,98307.97
2022-08-16T15:57:12.054Z,98300.34
2022-08-16T16:00:04.199Z,98303.25
2022-08-16T16:03:08.637Z,98327.91
2022-08-16T16:05:59.407Z,98321.34
2022-08-16T16:08:47.357Z,98322.91
2022-08-16T16:11:33.782Z,98324.06
2022-08-16T16:14:22.358Z,98303.66
2022-08-16T16:17:16.155Z,98296.09
2022-08-16T16:20:05.154Z,98324.41
2022-08-16T16:23:10.197Z,98315.50
2022-08-16T16:25:58.658Z,98279.53
2022-08-16T16:29:06.223Z,98318.97
2022-08-16T16:31:59.222Z,98299.19
2022-08-16T16:34:46.429Z,98285.41
2022-08-16T16:37:33.360Z,98287.81
2022-08-16T16:40:23.962Z,98276.34
2022-08-16T16:43:18.751Z,98296.28
2022-08-16T16:46:40.691Z,98267.50
2022-08-16T16:49:26.416Z,98316.75
2022-08-16T16:52:43.542Z,98284.03
2022-08-16T16:55:22.487Z,98306.34
2022-08-16T16:58:36.629Z,98306.66
2022-08-16T17:01:57.080Z,98311.66
2022-08-16T17:04:32.909Z,98280.69
2022-08-16T17:07:24.039Z,98286.78
2022-08-16T17:10:10.991Z,98302.03
2022-08-16T17:13:04.965Z,98314.34
2022-08-16T17:15:53.382Z,98323.34
2022-08-16T17:19:17.131Z,98305.53
2022-08-16T17:21:46.491Z,98295.69
2022-08-16T17:24:39.800Z,98308.91
2022-08-16T17:27:33.791Z,98306.31
2022-08-16T17:30:29.511Z,98281.50
2022-08-16T17:33:37.006Z,98309.97
2022-08-16T17:36:36.305Z,98277.28
2022-08-16T17:39:23.758Z,98258.16
2022-08-16T17:42:15.782Z,98314.94
2022-08-16T17:45:02.743Z,98283.75
2022-08-16T17:47:49.880Z,98324.06
2022-08-16T17:50:37.129Z,98304.19
2022-08-16T17:53:23.896Z,98304.31
2022-08-16T17:56:10.516Z,98306.38
2022-08-16T17:58:57.093Z,98296.63
2022-08-16T18:01:43.683Z,98299.00
2022-08-16T18:04:48.315Z,98289.28
2022-08-16T18:07:37.318Z,98279.00
2022-08-16T18:10:33.380Z,98316.88
2022-08-16T18:13:23.995Z,98324.47
2022-08-16T18:16:11.306Z,98317.34
2022-08-16T18:18:58.434Z,98285.94
2022-08-16T18:22:03.358Z,98294.59
2022-08-16T18:24:51.636Z,98324.78
2022-08-16T18:27:38.563Z,98335.44
2022-08-16T18:30:25.184Z,98301.97
2022-08-16T18:33:12.437Z,98333.06
2022-08-16T18:35:59.000Z,98334.53
2022-08-16T18:38:45.206Z,98330.56
2022-08-16T18:41:36.740Z,98280.09
2022-08-16T18:44:29.221Z,98307.75
2022-08-16T18:47:18.631Z,98303.53
2022-08-16T18:50:05.622Z,98305.66
2022-08-16T18:52:57.413Z,98307.56
2022-08-16T18:55:45.651Z,98321.44
2022-08-16T18:58:35.169Z,98334.81
2022-08-16T19:01:21.510Z,98320.50
2022-08-16T19:04:47.446Z,98342.00
2022-08-16T19:07:14.066Z,98339.94
2022-08-16T19:10:01.577Z,98347.47
2022-08-16T19:12:48.489Z,98334.91
2022-08-16T19:15:35.745Z,98342.38
2022-08-16T19:18:22.567Z,98363.19
2022-08-16T19:21:11.381Z,98314.88
2022-08-16T19:24:01.195Z,98354.00
2022-08-16T19:26:50.193Z,98347.91
2022-08-16T19:29:36.774Z,98359.88
2022-08-16T19:32:27.175Z,98381.13
2022-08-16T19:35:14.811Z,98378.97
2022-08-16T19:38:01.490Z,98371.03
2022-08-16T19:40:47.989Z,98368.00
2022-08-16T19:43:35.905Z,98379.47
2022-08-16T19:46:22.204Z,98352.03
2022-08-16T19:49:08.417Z,98379.03
2022-08-16T19:51:55.147Z,98382.75
2022-08-16T19:54:43.567Z,98379.84
2022-08-16T19:57:30.535Z,98363.25
2022-08-16T20:00:18.810Z,98362.66
2022-08-16T20:03:12.595Z,98292.88
2022-08-16T20:05:59.343Z,98378.53
2022-08-16T20:08:45.538Z,98371.91
2022-08-16T20:11:32.194Z,98355.94
2022-08-16T20:14:24.633Z,98353.72
2022-08-16T20:17:13.315Z,98344.13
2022-08-16T20:19:59.613Z,98362.34
2022-08-16T20:23:02.643Z,98381.97
2022-08-16T20:25:50.009Z,98366.66
2022-08-16T20:28:51.884Z,98342.81
2022-08-16T20:31:40.663Z,98374.72
2022-08-16T20:34:27.301Z,98378.59
2022-08-16T20:37:16.174Z,98394.06
2022-08-16T20:40:28.496Z,98387.88
2022-08-16T20:43:13.263Z,98399.72
2022-08-16T20:45:59.937Z,98380.78
2022-08-16T20:48:46.177Z,98375.25
2022-08-16T20:51:32.669Z,98388.56
2022-08-16T20:54:33.413Z,98398.38
2022-08-16T20:57:19.801Z,98401.84
2022-08-16T21:00:08.646Z,98358.19
2022-08-16T21:02:55.394Z,98340.63
2022-08-16T21:05:42.754Z,98368.28
2022-08-16T21:08:52.117Z,98387.69
2022-08-16T21:11:37.263Z,98369.28
2022-08-16T21:14:24.294Z,98414.94
2022-08-16T21:17:12.972Z,98409.56
2022-08-16T21:19:59.270Z,98386.81
2022-08-16T21:22:57.377Z,98425.28
2022-08-16T21:25:57.731Z,98427.44
2022-08-16T21:28:45.502Z,98410.56
2022-08-16T21:31:31.811Z,98406.47
2022-08-16T21:34:18.077Z,98393.72
2022-08-16T21:37:05.026Z,98398.09
2022-08-16T21:39:51.199Z,98397.72
2022-08-16T21:42:39.832Z,98428.56
2022-08-16T21:45:26.389Z,98424.66
2022-08-16T21:48:12.784Z,98423.75
2022-08-16T21:50:59.551Z,98433.41
2022-08-16T21:53:46.096Z,98437.03
2022-08-16T21:56:32.455Z,98389.63
2022-08-16T21:59:18.675Z,98390.81
2022-08-16T22:02:05.896Z,98392.44
2022-08-16T22:04:52.276Z,98383.50
2022-08-16T22:07:38.590Z,98412.44
2022-08-16T22:11:04.377Z,98399.94
2022-08-16T22:13:32.196Z,98402.75
2022-08-16T22:16:19.146Z,98401.31
2022-08-16T22:19:05.743Z,98427.09
2022-08-16T22:21:52.811Z,98411.78
2022-08-16T22:24:39.751Z,98425.75
2022-08-16T22:27:26.642Z,98441.34
2022-08-16T22:30:13.923Z,98444.22
2022-08-16T22:33:00.688Z,98421.53
2022-08-16T22:35:53.352Z,98428.94
2022-08-16T22:38:55.884Z,98404.25
2022-08-16T22:41:45.428Z,98435.06
2022-08-16T22:44:32.498Z,98397.28
2022-08-16T22:47:19.005Z,98415.22
2022-08-16T22:50:08.940Z,98411.25
2022-08-16T22:52:57.307Z,98437.91
2022-08-16T22:55:44.167Z,98387.00
2022-08-16T22:58:36.513Z,98395.59
2022-08-16T23:01:25.955Z,98445.41
2022-08-16T23:04:12.466Z,98444.72
2022-08-16T23:06:59.248Z,98404.88
2022-08-16T23:09:45.559Z,98398.03
2022-08-16T23:12:32.095Z,98410.13
2022-08-16T23:15:23.106Z,98441.44
2022-08-16T23:18:10.850Z,98407.53
2022-08-16T23:21:02.577Z,98424.81
2022-08-16T23:23:49.963Z,98365.13
2022-08-16T23:26:45.868Z,98435.91
2022-08-16T23:29:34.788Z,98409.59
2022-08-16T23:32:21.319Z,98403.75
2022-08-16T23:35:08.929Z,98408.22
2022-08-16T23:37:55.999Z,98431.47
2022-08-16T23:40:42.431Z,98403.34
2022-08-16T23:43:31.937Z,98418.63
2022-08-16T23:46:19.480Z,98415.28
2022-08-16T23:49:58.510Z,98403.34
2022-08-16T23:52:12.077Z,98389.09
2022-08-16T23:55:03.697Z,98367.78
2022-08-16T23:57:50.477Z,98362.50
